sensor_id;sensor_type;location;lat;lon;timestamp;pressure;altitude;pressure_sealevel;temperature;humidity
79067;BME280;68470;50.224;14.348;2023-05-10T00:02:09;99096.91;;;8.53;62.64
79067;BME280;68470;50.224;14.348;2023-05-10T00:04:35;99102.81;;;8.66;62.17
79067;BME280;68470;50.224;14.348;2023-05-10T00:07:01;99108.53;;;8.38;63.10
79067;BME280;68470;50.224;14.348;2023-05-10T00:09:26;99103.75;;;8.50;62.79
79067;BME280;68470;50.224;14.348;2023-05-10T00:11:52;99107.91;;;8.31;63.94
79067;BME280;68470;50.224;14.348;2023-05-10T00:14:18;99107.38;;;8.07;64.81
79067;BME280;68470;50.224;14.348;2023-05-10T00:16:44;99098.47;;;8.22;64.32
79067;BME280;68470;50.224;14.348;2023-05-10T00:19:09;99097.84;;;8.14;64.36
79067;BME280;68470;50.224;14.348;2023-05-10T00:21:35;99098.88;;;8.08;65.34
79067;BME280;68470;50.224;14.348;2023-05-10T00:24:01;99103.91;;;7.95;65.23
79067;BME280;68470;50.224;14.348;2023-05-10T00:26:27;99099.44;;;7.89;65.92
79067;BME280;68470;50.224;14.348;2023-05-10T00:28:53;99099.44;;;7.67;67.10
79067;BME280;68470;50.224;14.348;2023-05-10T00:31:19;99101.53;;;7.60;67.40
79067;BME280;68470;50.224;14.348;2023-05-10T00:33:44;99097.47;;;7.62;67.00
79067;BME280;68470;50.224;14.348;2023-05-10T00:36:11;99100.47;;;7.61;66.97
79067;BME280;68470;50.224;14.348;2023-05-10T00:38:36;99083.63;;;7.52;66.67
79067;BME280;68470;50.224;14.348;2023-05-10T00:41:02;99084.13;;;7.49;67.51
79067;BME280;68470;50.224;14.348;2023-05-10T00:43:28;99093.59;;;7.58;66.79
79067;BME280;68470;50.224;14.348;2023-05-10T00:45:54;99085.63;;;7.57;67.16
79067;BME280;68470;50.224;14.348;2023-05-10T00:48:21;99082.53;;;7.53;67.25
79067;BME280;68470;50.224;14.348;2023-05-10T00:50:47;99083.50;;;7.42;67.74
79067;BME280;68470;50.224;14.348;2023-05-10T00:53:14;99079.78;;;7.31;67.74
79067;BME280;68470;50.224;14.348;2023-05-10T00:55:40;99077.09;;;7.36;67.79
79067;BME280;68470;50.224;14.348;2023-05-10T00:58:07;99081.00;;;7.40;67.64
79067;BME280;68470;50.224;14.348;2023-05-10T01:00:33;99082.97;;;7.45;67.37
79067;BME280;68470;50.224;14.348;2023-05-10T01:02:59;99080.34;;;7.33;67.77
79067;BME280;68470;50.224;14.348;2023-05-10T01:05:25;99083.66;;;7.35;68.27
79067;BME280;68470;50.224;14.348;2023-05-10T01:07:52;99078.69;;;7.32;68.07
79067;BME280;68470;50.224;14.348;2023-05-10T01:10:18;99069.41;;;7.33;68.59
79067;BME280;68470;50.224;14.348;2023-05-10T01:12:46;99075.88;;;7.27;68.87
79067;BME280;68470;50.224;14.348;2023-05-10T01:15:13;99068.56;;;7.33;68.43
79067;BME280;68470;50.224;14.348;2023-05-10T01:17:42;99070.72;;;7.31;68.51
79067;BME280;68470;50.224;14.348;2023-05-10T01:20:09;99068.56;;;7.33;68.56
79067;BME280;68470;50.224;14.348;2023-05-10T01:33:18;99067.00;;;7.20;68.87
79067;BME280;68470;50.224;14.348;2023-05-10T01:38:24;99067.84;;;7.20;69.63
79067;BME280;68470;50.224;14.348;2023-05-10T01:41:16;99067.00;;;7.20;69.40
79067;BME280;68470;50.224;14.348;2023-05-10T01:46:27;99059.47;;;7.27;68.87
79067;BME280;68470;50.224;14.348;2023-05-10T01:48:55;99064.78;;;7.17;69.78
79067;BME280;68470;50.224;14.348;2023-05-10T01:51:25;99046.06;;;7.09;69.43
79067;BME280;68470;50.224;14.348;2023-05-10T01:53:54;99049.91;;;7.30;68.60
79067;BME280;68470;50.224;14.348;2023-05-10T01:56:25;99052.69;;;7.13;70.16
79067;BME280;68470;50.224;14.348;2023-05-10T01:58:52;99053.19;;;7.10;69.74
79067;BME280;68470;50.224;14.348;2023-05-10T02:01:21;99049.38;;;7.11;69.76
79067;BME280;68470;50.224;14.348;2023-05-10T02:03:48;99043.63;;;7.12;69.83
79067;BME280;68470;50.224;14.348;2023-05-10T02:06:16;99047.94;;;7.25;68.86
79067;BME280;68470;50.224;14.348;2023-05-10T02:08:45;99048.22;;;7.07;70.41
79067;BME280;68470;50.224;14.348;2023-05-10T02:11:17;99046.56;;;7.06;70.38
79067;BME280;68470;50.224;14.348;2023-05-10T02:13:44;99056.44;;;7.07;70.48
79067;BME280;68470;50.224;14.348;2023-05-10T02:16:14;99054.00;;;7.10;69.92
79067;BME280;68470;50.224;14.348;2023-05-10T02:18:41;99055.50;;;7.01;70.75
79067;BME280;68470;50.224;14.348;2023-05-10T02:21:07;99059.75;;;6.92;71.40
79067;BME280;68470;50.224;14.348;2023-05-10T02:23:34;99063.13;;;6.99;70.85
79067;BME280;68470;50.224;14.348;2023-05-10T02:26:02;99044.88;;;7.05;70.63
79067;BME280;68470;50.224;14.348;2023-05-10T02:28:29;99066.78;;;7.05;70.54
79067;BME280;68470;50.224;14.348;2023-05-10T02:30:55;99047.38;;;7.06;70.25
79067;BME280;68470;50.224;14.348;2023-05-10T02:33:22;99047.97;;;6.91;71.22
79067;BME280;68470;50.224;14.348;2023-05-10T02:35:50;99045.56;;;6.95;70.65
79067;BME280;68470;50.224;14.348;2023-05-10T02:38:18;99050.38;;;6.88;71.57
79067;BME280;68470;50.224;14.348;2023-05-10T02:40:46;99049.72;;;6.81;71.46
79067;BME280;68470;50.224;14.348;2023-05-10T02:43:14;99042.00;;;6.78;71.83
79067;BME280;68470;50.224;14.348;2023-05-10T02:45:43;99046.72;;;6.82;71.28
79067;BME280;68470;50.224;14.348;2023-05-10T02:48:12;99042.28;;;6.76;72.12
79067;BME280;68470;50.224;14.348;2023-05-10T02:50:39;99052.44;;;6.64;72.80
79067;BME280;68470;50.224;14.348;2023-05-10T02:53:11;99045.41;;;6.68;72.29
79067;BME280;68470;50.224;14.348;2023-05-10T02:55:41;99044.19;;;6.76;72.23
79067;BME280;68470;50.224;14.348;2023-05-10T02:58:09;99043.50;;;6.69;72.50
79067;BME280;68470;50.224;14.348;2023-05-10T03:00:35;99042.53;;;6.75;72.55
79067;BME280;68470;50.224;14.348;2023-05-10T03:03:01;99050.28;;;6.66;72.68
79067;BME280;68470;50.224;14.348;2023-05-10T03:05:27;99036.22;;;6.74;71.98
79067;BME280;68470;50.224;14.348;2023-05-10T03:07:53;99030.31;;;6.66;72.65
79067;BME280;68470;50.224;14.348;2023-05-10T03:10:22;99037.88;;;6.75;72.63
79067;BME280;68470;50.224;14.348;2023-05-10T03:13:12;99048.72;;;6.70;72.72
79067;BME280;68470;50.224;14.348;2023-05-10T03:15:59;99045.97;;;6.70;72.77
79067;BME280;68470;50.224;14.348;2023-05-10T03:18:48;99042.91;;;6.67;73.02
79067;BME280;68470;50.224;14.348;2023-05-10T03:21:17;99042.16;;;6.54;74.01
79067;BME280;68470;50.224;14.348;2023-05-10T03:23:52;99032.66;;;6.57;72.88
79067;BME280;68470;50.224;14.348;2023-05-10T03:26:29;99036.69;;;6.54;73.67
79067;BME280;68470;50.224;14.348;2023-05-10T03:28:57;99035.84;;;6.37;74.39
79067;BME280;68470;50.224;14.348;2023-05-10T03:31:25;99039.28;;;6.44;74.51
79067;BME280;68470;50.224;14.348;2023-05-10T03:33:52;99048.22;;;6.40;74.42
79067;BME280;68470;50.224;14.348;2023-05-10T03:36:18;99045.69;;;6.38;74.83
79067;BME280;68470;50.224;14.348;2023-05-10T03:38:45;99053.44;;;6.41;74.68
79067;BME280;68470;50.224;14.348;2023-05-10T03:41:11;99065.78;;;6.44;74.87
79067;BME280;68470;50.224;14.348;2023-05-10T03:43:36;99066.28;;;6.41;75.55
79067;BME280;68470;50.224;14.348;2023-05-10T03:46:03;99073.50;;;6.18;75.69
79067;BME280;68470;50.224;14.348;2023-05-10T03:48:29;99073.38;;;6.25;75.19
79067;BME280;68470;50.224;14.348;2023-05-10T03:50:55;99081.59;;;6.13;76.58
79067;BME280;68470;50.224;14.348;2023-05-10T03:53:21;99082.44;;;6.14;76.48
79067;BME280;68470;50.224;14.348;2023-05-10T03:55:48;99077.91;;;5.91;76.71
79067;BME280;68470;50.224;14.348;2023-05-10T03:58:14;99075.91;;;5.63;77.90
79067;BME280;68470;50.224;14.348;2023-05-10T04:00:40;99081.38;;;5.51;78.25
79067;BME280;68470;50.224;14.348;2023-05-10T04:03:11;99078.88;;;5.61;78.67
79067;BME280;68470;50.224;14.348;2023-05-10T04:05:37;99080.72;;;5.84;78.52
79067;BME280;68470;50.224;14.348;2023-05-10T04:08:04;99082.16;;;6.27;76.15
79067;BME280;68470;50.224;14.348;2023-05-10T04:10:30;99075.09;;;6.76;74.50
79067;BME280;68470;50.224;14.348;2023-05-10T04:12:55;99075.69;;;7.34;72.33
79067;BME280;68470;50.224;14.348;2023-05-10T04:15:21;99067.66;;;8.09;68.92
79067;BME280;68470;50.224;14.348;2023-05-10T04:17:47;99059.44;;;8.63;66.74
79067;BME280;68470;50.224;14.348;2023-05-10T04:20:13;99063.09;;;8.74;66.10
79067;BME280;68470;50.224;14.348;2023-05-10T04:22:39;99061.41;;;9.05;65.11
79067;BME280;68470;50.224;14.348;2023-05-10T04:25:05;99054.13;;;8.84;65.29
79067;BME280;68470;50.224;14.348;2023-05-10T04:27:31;99040.59;;;9.09;64.82
79067;BME280;68470;50.224;14.348;2023-05-10T04:29:57;99055.06;;;8.99;65.04
79067;BME280;68470;50.224;14.348;2023-05-10T04:32:23;99054.16;;;9.26;64.37
79067;BME280;68470;50.224;14.348;2023-05-10T04:34:49;99059.56;;;9.16;64.68
79067;BME280;68470;50.224;14.348;2023-05-10T04:37:16;99061.78;;;9.66;63.68
79067;BME280;68470;50.224;14.348;2023-05-10T04:39:41;99062.16;;;9.90;62.45
79067;BME280;68470;50.224;14.348;2023-05-10T04:42:07;99055.81;;;9.74;62.42
79067;BME280;68470;50.224;14.348;2023-05-10T04:44:33;99056.44;;;9.91;62.33
79067;BME280;68470;50.224;14.348;2023-05-10T04:46:59;99052.78;;;9.81;62.73
79067;BME280;68470;50.224;14.348;2023-05-10T04:49:25;99054.72;;;9.75;62.65
79067;BME280;68470;50.224;14.348;2023-05-10T04:51:50;99054.47;;;9.87;62.68
79067;BME280;68470;50.224;14.348;2023-05-10T04:54:16;99055.34;;;9.98;61.81
79067;BME280;68470;50.224;14.348;2023-05-10T04:56:41;99060.69;;;10.24;60.86
79067;BME280;68470;50.224;14.348;2023-05-10T04:59:07;99052.66;;;10.18;61.37
79067;BME280;68470;50.224;14.348;2023-05-10T05:01:33;99062.63;;;10.39;61.13
79067;BME280;68470;50.224;14.348;2023-05-10T05:03:59;99056.63;;;10.68;59.72
79067;BME280;68470;50.224;14.348;2023-05-10T05:06:25;99047.56;;;10.93;59.40
79067;BME280;68470;50.224;14.348;2023-05-10T05:08:52;99050.56;;;10.81;59.86
79067;BME280;68470;50.224;14.348;2023-05-10T05:11:18;99046.44;;;10.83;60.09
79067;BME280;68470;50.224;14.348;2023-05-10T05:13:44;99055.78;;;11.03;59.61
79067;BME280;68470;50.224;14.348;2023-05-10T05:16:10;99057.44;;;11.29;58.59
79067;BME280;68470;50.224;14.348;2023-05-10T05:18:36;99044.50;;;11.09;59.33
79067;BME280;68470;50.224;14.348;2023-05-10T05:21:02;99055.41;;;11.81;57.61
79067;BME280;68470;50.224;14.348;2023-05-10T05:23:28;99063.50;;;12.16;56.50
79067;BME280;68470;50.224;14.348;2023-05-10T05:25:54;99051.56;;;12.26;56.20
79067;BME280;68470;50.224;14.348;2023-05-10T05:28:20;99045.91;;;12.02;56.04
79067;BME280;68470;50.224;14.348;2023-05-10T05:30:46;99049.59;;;11.77;57.62
79067;BME280;68470;50.224;14.348;2023-05-10T05:33:15;99053.34;;;12.07;56.90
79067;BME280;68470;50.224;14.348;2023-05-10T05:35:41;99060.53;;;12.02;56.92
79067;BME280;68470;50.224;14.348;2023-05-10T05:38:08;99056.22;;;12.35;56.10
79067;BME280;68470;50.224;14.348;2023-05-10T05:40:34;99059.09;;;12.15;56.25
79067;BME280;68470;50.224;14.348;2023-05-10T05:43:00;99058.50;;;12.23;56.08
79067;BME280;68470;50.224;14.348;2023-05-10T05:45:25;99051.53;;;12.75;55.25
79067;BME280;68470;50.224;14.348;2023-05-10T05:47:51;99058.00;;;12.60;55.36
79067;BME280;68470;50.224;14.348;2023-05-10T05:50:17;99059.72;;;12.51;55.24
79067;BME280;68470;50.224;14.348;2023-05-10T05:52:43;99054.03;;;12.77;54.72
79067;BME280;68470;50.224;14.348;2023-05-10T05:55:08;99060.22;;;12.14;56.61
79067;BME280;68470;50.224;14.348;2023-05-10T05:57:34;99053.34;;;12.95;54.45
79067;BME280;68470;50.224;14.348;2023-05-10T05:59:59;99050.28;;;12.91;54.86
79067;BME280;68470;50.224;14.348;2023-05-10T06:02:25;99053.81;;;13.02;54.50
79067;BME280;68470;50.224;14.348;2023-05-10T06:04:51;99048.63;;;13.53;52.91
79067;BME280;68470;50.224;14.348;2023-05-10T06:07:17;99055.72;;;13.65;53.33
79067;BME280;68470;50.224;14.348;2023-05-10T06:09:42;99063.69;;;13.42;53.84
79067;BME280;68470;50.224;14.348;2023-05-10T06:12:08;99052.88;;;13.94;51.96
79067;BME280;68470;50.224;14.348;2023-05-10T06:14:34;99033.88;;;13.87;52.13
79067;BME280;68470;50.224;14.348;2023-05-10T06:16:59;99059.28;;;13.89;51.41
79067;BME280;68470;50.224;14.348;2023-05-10T06:19:25;99058.78;;;14.11;50.97
79067;BME280;68470;50.224;14.348;2023-05-10T06:21:52;99052.59;;;14.57;50.22
79067;BME280;68470;50.224;14.348;2023-05-10T06:24:17;99046.63;;;14.68;49.81
79067;BME280;68470;50.224;14.348;2023-05-10T06:26:43;99045.09;;;14.38;50.05
79067;BME280;68470;50.224;14.348;2023-05-10T06:29:08;99042.31;;;14.38;51.24
79067;BME280;68470;50.224;14.348;2023-05-10T06:31:34;99046.50;;;13.93;51.77
79067;BME280;68470;50.224;14.348;2023-05-10T06:34:00;99051.19;;;14.59;50.53
79067;BME280;68470;50.224;14.348;2023-05-10T06:36:26;99059.44;;;15.16;49.81
79067;BME280;68470;50.224;14.348;2023-05-10T06:38:52;99045.06;;;15.87;47.59
79067;BME280;68470;50.224;14.348;2023-05-10T06:41:18;99051.94;;;15.16;49.29
79067;BME280;68470;50.224;14.348;2023-05-10T06:43:43;99054.84;;;14.73;50.78
79067;BME280;68470;50.224;14.348;2023-05-10T06:46:09;99049.22;;;14.97;50.04
79067;BME280;68470;50.224;14.348;2023-05-10T06:48:35;99044.81;;;15.10;50.08
79067;BME280;68470;50.224;14.348;2023-05-10T06:51:00;99044.31;;;15.08;49.22
79067;BME280;68470;50.224;14.348;2023-05-10T06:53:26;99043.41;;;15.59;48.64
79067;BME280;68470;50.224;14.348;2023-05-10T06:55:53;99038.69;;;15.59;48.60
79067;BME280;68470;50.224;14.348;2023-05-10T06:58:18;99053.63;;;15.45;48.30
79067;BME280;68470;50.224;14.348;2023-05-10T07:00:44;99036.25;;;15.99;47.34
79067;BME280;68470;50.224;14.348;2023-05-10T07:03:10;99035.72;;;16.97;44.60
79067;BME280;68470;50.224;14.348;2023-05-10T07:05:36;99043.81;;;16.21;46.51
79067;BME280;68470;50.224;14.348;2023-05-10T07:08:02;99034.31;;;16.49;46.03
79067;BME280;68470;50.224;14.348;2023-05-10T07:10:28;99039.69;;;17.04;44.67
79067;BME280;68470;50.224;14.348;2023-05-10T07:12:53;99038.38;;;16.66;45.59
79067;BME280;68470;50.224;14.348;2023-05-10T07:15:19;99037.66;;;16.60;45.80
79067;BME280;68470;50.224;14.348;2023-05-10T07:17:45;99037.31;;;16.75;45.93
79067;BME280;68470;50.224;14.348;2023-05-10T07:20:12;99044.00;;;16.24;47.03
79067;BME280;68470;50.224;14.348;2023-05-10T07:22:37;99030.41;;;17.40;44.81
79067;BME280;68470;50.224;14.348;2023-05-10T07:25:03;99029.19;;;17.86;43.85
79067;BME280;68470;50.224;14.348;2023-05-10T07:27:29;99039.75;;;17.44;44.24
79067;BME280;68470;50.224;14.348;2023-05-10T07:29:55;99034.28;;;16.13;46.47
79067;BME280;68470;50.224;14.348;2023-05-10T07:32:21;99029.84;;;16.98;45.50
79067;BME280;68470;50.224;14.348;2023-05-10T07:34:47;99024.34;;;17.38;44.60
79067;BME280;68470;50.224;14.348;2023-05-10T07:37:13;99031.78;;;17.20;44.82
79067;BME280;68470;50.224;14.348;2023-05-10T07:39:39;99019.75;;;17.64;43.74
79067;BME280;68470;50.224;14.348;2023-05-10T07:42:04;99030.53;;;18.06;43.68
79067;BME280;68470;50.224;14.348;2023-05-10T07:44:31;99033.47;;;19.01;40.47
79067;BME280;68470;50.224;14.348;2023-05-10T07:46:56;99028.53;;;18.98;40.16
79067;BME280;68470;50.224;14.348;2023-05-10T07:49:22;99024.69;;;19.37;40.41
79067;BME280;68470;50.224;14.348;2023-05-10T07:51:49;99031.97;;;17.86;43.39
79067;BME280;68470;50.224;14.348;2023-05-10T07:54:15;99026.97;;;17.43;44.03
79067;BME280;68470;50.224;14.348;2023-05-10T07:56:41;99022.09;;;18.37;42.14
79067;BME280;68470;50.224;14.348;2023-05-10T07:59:15;99018.69;;;17.83;43.35
79067;BME280;68470;50.224;14.348;2023-05-10T08:01:41;99020.16;;;17.18;44.73
79067;BME280;68470;50.224;14.348;2023-05-10T08:04:07;99014.94;;;18.87;42.07
79067;BME280;68470;50.224;14.348;2023-05-10T08:06:34;99023.44;;;19.17;40.66
79067;BME280;68470;50.224;14.348;2023-05-10T08:09:00;99017.94;;;20.23;40.04
79067;BME280;68470;50.224;14.348;2023-05-10T08:11:25;99020.72;;;19.93;39.46
79067;BME280;68470;50.224;14.348;2023-05-10T08:13:53;99022.25;;;20.70;37.46
79067;BME280;68470;50.224;14.348;2023-05-10T08:16:20;99019.09;;;19.92;39.32
79067;BME280;68470;50.224;14.348;2023-05-10T08:18:46;99021.16;;;18.76;39.54
79067;BME280;68470;50.224;14.348;2023-05-10T08:21:15;99019.38;;;18.71;39.45
79067;BME280;68470;50.224;14.348;2023-05-10T08:23:42;99012.91;;;20.66;37.38
79067;BME280;68470;50.224;14.348;2023-05-10T08:26:08;99026.41;;;19.03;38.12
79067;BME280;68470;50.224;14.348;2023-05-10T08:28:34;99021.31;;;18.88;38.47
79067;BME280;68470;50.224;14.348;2023-05-10T08:31:00;99024.88;;;19.23;38.84
79067;BME280;68470;50.224;14.348;2023-05-10T08:33:26;99015.28;;;19.59;37.41
79067;BME280;68470;50.224;14.348;2023-05-10T08:35:52;99008.22;;;18.88;39.01
79067;BME280;68470;50.224;14.348;2023-05-10T08:38:18;99019.03;;;18.73;39.17
79067;BME280;68470;50.224;14.348;2023-05-10T08:40:44;99014.22;;;20.10;36.25
79067;BME280;68470;50.224;14.348;2023-05-10T08:43:12;99015.88;;;19.09;38.32
79067;BME280;68470;50.224;14.348;2023-05-10T08:45:43;99000.41;;;20.43;36.53
79067;BME280;68470;50.224;14.348;2023-05-10T08:48:11;99006.28;;;21.70;33.26
79067;BME280;68470;50.224;14.348;2023-05-10T08:50:39;99004.69;;;23.10;31.17
79067;BME280;68470;50.224;14.348;2023-05-10T08:53:09;99005.03;;;23.37;31.38
79067;BME280;68470;50.224;14.348;2023-05-10T08:55:36;99013.06;;;21.03;34.65
79067;BME280;68470;50.224;14.348;2023-05-10T08:58:06;99013.00;;;21.45;33.65
79067;BME280;68470;50.224;14.348;2023-05-10T09:00:32;99003.88;;;20.10;35.76
79067;BME280;68470;50.224;14.348;2023-05-10T09:02:59;99018.09;;;19.59;37.17
79067;BME280;68470;50.224;14.348;2023-05-10T09:05:25;99014.09;;;18.96;38.08
79067;BME280;68470;50.224;14.348;2023-05-10T09:07:51;99025.91;;;18.75;38.31
79067;BME280;68470;50.224;14.348;2023-05-10T09:10:17;99024.47;;;19.68;37.51
79067;BME280;68470;50.224;14.348;2023-05-10T09:12:44;99008.13;;;21.66;33.29
79067;BME280;68470;50.224;14.348;2023-05-10T09:15:17;99001.38;;;22.04;32.63
79067;BME280;68470;50.224;14.348;2023-05-10T09:17:45;99008.34;;;20.83;34.73
79067;BME280;68470;50.224;14.348;2023-05-10T09:20:14;99021.13;;;20.63;35.37
79067;BME280;68470;50.224;14.348;2023-05-10T09:22:40;99010.94;;;20.67;35.19
79067;BME280;68470;50.224;14.348;2023-05-10T09:25:07;99010.50;;;22.13;33.47
79067;BME280;68470;50.224;14.348;2023-05-10T09:27:34;99016.97;;;24.09;29.58
79067;BME280;68470;50.224;14.348;2023-05-10T09:30:01;99011.75;;;24.27;29.55
79067;BME280;68470;50.224;14.348;2023-05-10T09:32:37;99014.44;;;22.48;32.35
79067;BME280;68470;50.224;14.348;2023-05-10T09:35:10;99007.81;;;22.04;32.54
79067;BME280;68470;50.224;14.348;2023-05-10T09:37:36;99006.84;;;21.76;34.47
79067;BME280;68470;50.224;14.348;2023-05-10T09:40:04;99013.38;;;21.55;34.24
79067;BME280;68470;50.224;14.348;2023-05-10T09:42:30;99006.91;;;23.92;30.79
79067;BME280;68470;50.224;14.348;2023-05-10T09:45:03;99012.28;;;22.05;33.19
79067;BME280;68470;50.224;14.348;2023-05-10T09:47:35;99012.84;;;21.08;34.77
79067;BME280;68470;50.224;14.348;2023-05-10T09:50:02;99010.56;;;21.22;34.68
79067;BME280;68470;50.224;14.348;2023-05-10T09:52:53;98997.81;;;20.59;35.00
79067;BME280;68470;50.224;14.348;2023-05-10T09:55:24;99004.03;;;20.85;35.56
79067;BME280;68470;50.224;14.348;2023-05-10T09:58:01;98995.59;;;21.39;34.50
79067;BME280;68470;50.224;14.348;2023-05-10T10:00:27;98997.19;;;22.22;32.71
79067;BME280;68470;50.224;14.348;2023-05-10T10:02:55;98991.66;;;22.50;32.20
79067;BME280;68470;50.224;14.348;2023-05-10T10:05:21;98995.78;;;22.16;32.95
79067;BME280;68470;50.224;14.348;2023-05-10T10:07:53;98997.88;;;21.82;33.27
79067;BME280;68470;50.224;14.348;2023-05-10T10:10:18;99003.41;;;20.59;35.24
79067;BME280;68470;50.224;14.348;2023-05-10T10:12:44;98994.31;;;21.37;34.74
79067;BME280;68470;50.224;14.348;2023-05-10T10:15:10;98998.81;;;21.86;33.42
79067;BME280;68470;50.224;14.348;2023-05-10T10:17:37;98988.53;;;21.78;32.98
79067;BME280;68470;50.224;14.348;2023-05-10T10:20:04;98993.28;;;21.41;34.12
79067;BME280;68470;50.224;14.348;2023-05-10T10:22:30;98992.84;;;20.64;35.88
79067;BME280;68470;50.224;14.348;2023-05-10T10:24:56;98999.88;;;19.91;36.63
79067;BME280;68470;50.224;14.348;2023-05-10T10:27:36;98988.88;;;20.45;35.79
79067;BME280;68470;50.224;14.348;2023-05-10T10:30:16;98983.47;;;21.02;34.23
79067;BME280;68470;50.224;14.348;2023-05-10T10:35:34;98983.03;;;22.83;31.47
79067;BME280;68470;50.224;14.348;2023-05-10T10:38:00;98981.44;;;23.69;30.34
79067;BME280;68470;50.224;14.348;2023-05-10T10:40:31;98976.66;;;25.10;27.89
79067;BME280;68470;50.224;14.348;2023-05-10T10:42:57;98987.53;;;23.28;30.64
79067;BME280;68470;50.224;14.348;2023-05-10T10:45:24;98973.25;;;24.12;28.86
79067;BME280;68470;50.224;14.348;2023-05-10T10:48:20;98973.72;;;23.98;30.31
79067;BME280;68470;50.224;14.348;2023-05-10T10:50:46;98978.28;;;20.92;34.35
79067;BME280;68470;50.224;14.348;2023-05-10T10:53:12;98969.16;;;21.98;33.33
79067;BME280;68470;50.224;14.348;2023-05-10T10:55:48;98971.31;;;20.98;34.36
79067;BME280;68470;50.224;14.348;2023-05-10T10:58:30;98975.00;;;23.69;31.28
79067;BME280;68470;50.224;14.348;2023-05-10T11:01:14;98971.47;;;25.55;28.54
79067;BME280;68470;50.224;14.348;2023-05-10T11:03:41;98955.75;;;25.54;27.65
79067;BME280;68470;50.224;14.348;2023-05-10T11:06:32;98953.53;;;25.66;27.54
79067;BME280;68470;50.224;14.348;2023-05-10T11:08:58;98955.06;;;25.18;27.18
79067;BME280;68470;50.224;14.348;2023-05-10T11:11:24;98966.81;;;23.95;28.33
79067;BME280;68470;50.224;14.348;2023-05-10T11:13:51;98955.22;;;24.48;27.99
79067;BME280;68470;50.224;14.348;2023-05-10T11:16:24;98951.75;;;25.55;26.24
79067;BME280;68470;50.224;14.348;2023-05-10T11:18:58;98943.44;;;22.72;30.79
79067;BME280;68470;50.224;14.348;2023-05-10T11:21:24;98957.19;;;23.49;29.91
79067;BME280;68470;50.224;14.348;2023-05-10T11:23:52;98937.28;;;25.79;27.11
79067;BME280;68470;50.224;14.348;2023-05-10T11:26:21;98948.59;;;27.25;25.69
79067;BME280;68470;50.224;14.348;2023-05-10T11:28:48;98947.47;;;26.70;25.09
79067;BME280;68470;50.224;14.348;2023-05-10T11:31:18;98944.34;;;25.92;26.04
79067;BME280;68470;50.224;14.348;2023-05-10T11:33:45;98961.88;;;23.73;28.65
79067;BME280;68470;50.224;14.348;2023-05-10T11:36:13;98949.91;;;25.01;26.64
79067;BME280;68470;50.224;14.348;2023-05-10T11:38:39;98944.53;;;25.57;25.52
79067;BME280;68470;50.224;14.348;2023-05-10T11:41:05;98949.16;;;25.46;26.60
79067;BME280;68470;50.224;14.348;2023-05-10T11:43:33;98953.41;;;22.98;30.09
79067;BME280;68470;50.224;14.348;2023-05-10T11:45:59;98952.09;;;23.23;29.62
79067;BME280;68470;50.224;14.348;2023-05-10T11:48:24;98948.44;;;22.51;30.55
79067;BME280;68470;50.224;14.348;2023-05-10T11:50:50;98951.38;;;24.56;28.48
79067;BME280;68470;50.224;14.348;2023-05-10T11:53:16;98949.16;;;22.76;31.94
79067;BME280;68470;50.224;14.348;2023-05-10T11:55:42;98946.81;;;25.06;27.08
79067;BME280;68470;50.224;14.348;2023-05-10T11:58:09;98939.75;;;25.61;26.79
79067;BME280;68470;50.224;14.348;2023-05-10T12:00:35;98945.31;;;23.24;30.93
79067;BME280;68470;50.224;14.348;2023-05-10T12:03:01;98938.56;;;21.92;31.92
79067;BME280;68470;50.224;14.348;2023-05-10T12:05:27;98948.19;;;21.22;33.83
79067;BME280;68470;50.224;14.348;2023-05-10T12:08:10;98948.88;;;21.19;33.64
79067;BME280;68470;50.224;14.348;2023-05-10T12:10:36;98953.06;;;20.80;34.87
79067;BME280;68470;50.224;14.348;2023-05-10T12:13:01;98951.38;;;20.46;34.95
79067;BME280;68470;50.224;14.348;2023-05-10T12:15:28;98955.88;;;20.38;35.51
79067;BME280;68470;50.224;14.348;2023-05-10T12:17:54;98956.16;;;20.45;35.48
79067;BME280;68470;50.224;14.348;2023-05-10T12:20:23;98959.69;;;20.33;35.51
79067;BME280;68470;50.224;14.348;2023-05-10T12:22:56;98959.84;;;20.58;35.87
79067;BME280;68470;50.224;14.348;2023-05-10T12:25:23;98956.75;;;20.71;34.51
79067;BME280;68470;50.224;14.348;2023-05-10T12:27:55;98955.16;;;20.50;35.60
79067;BME280;68470;50.224;14.348;2023-05-10T12:32:47;98962.22;;;20.68;35.32
79067;BME280;68470;50.224;14.348;2023-05-10T12:35:12;98959.63;;;20.63;35.20
79067;BME280;68470;50.224;14.348;2023-05-10T12:37:38;98964.25;;;20.17;36.18
79067;BME280;68470;50.224;14.348;2023-05-10T12:40:09;98963.03;;;19.97;37.02
79067;BME280;68470;50.224;14.348;2023-05-10T12:42:37;98966.16;;;20.25;37.15
79067;BME280;68470;50.224;14.348;2023-05-10T12:45:04;98962.06;;;20.23;36.26
79067;BME280;68470;50.224;14.348;2023-05-10T12:47:31;98972.75;;;20.50;36.20
79067;BME280;68470;50.224;14.348;2023-05-10T12:49:58;98964.16;;;20.55;35.96
79067;BME280;68470;50.224;14.348;2023-05-10T12:52:24;98965.63;;;20.73;36.72
79067;BME280;68470;50.224;14.348;2023-05-10T12:54:52;98967.00;;;20.67;36.35
79067;BME280;68470;50.224;14.348;2023-05-10T12:57:21;98968.94;;;20.25;37.24
79067;BME280;68470;50.224;14.348;2023-05-10T12:59:47;98968.94;;;20.25;38.39
79067;BME280;68470;50.224;14.348;2023-05-10T13:02:12;98971.06;;;20.28;38.54
79067;BME280;68470;50.224;14.348;2023-05-10T13:04:40;98968.13;;;19.95;39.34
79067;BME280;68470;50.224;14.348;2023-05-10T13:07:06;98971.81;;;20.17;38.48
79067;BME280;68470;50.224;14.348;2023-05-10T13:09:32;98959.75;;;20.25;38.87
79067;BME280;68470;50.224;14.348;2023-05-10T13:11:58;98963.34;;;20.04;39.36
79067;BME280;68470;50.224;14.348;2023-05-10T13:14:24;98965.66;;;20.23;38.81
79067;BME280;68470;50.224;14.348;2023-05-10T13:16:50;98962.66;;;20.07;39.04